createdAt,value
2023-04-04T00:00:11.064Z,0.25
2023-04-04T00:05:12.363Z,0.25
2023-04-04T00:10:13.293Z,0.1875
2023-04-04T00:15:14.272Z,0.125
2023-04-04T00:20:15.138Z,0
2023-04-04T00:25:16.112Z,-0.125
2023-04-04T00:30:17.072Z,-0.125
2023-04-04T00:35:18.277Z,-0.125
2023-04-04T00:40:19.542Z,-0.125
2023-04-04T00:45:20.502Z,-0.0625
2023-04-04T00:50:21.477Z,-0.0625
2023-04-04T00:55:22.493Z,-0.0625
2023-04-04T01:00:23.633Z,-0.5625
2023-04-04T01:05:24.646Z,-0.125
2023-04-04T01:10:25.438Z,-0.125
2023-04-04T01:15:26.408Z,-0.125
2023-04-04T01:20:27.380Z,-0.25
2023-04-04T01:25:28.297Z,-0.375
2023-04-04T01:30:29.302Z,-0.6875
2023-04-04T01:35:30.510Z,-0.5
2023-04-04T01:40:31.525Z,-0.5625
2023-04-04T01:45:32.679Z,-0.625
2023-04-04T01:50:33.433Z,-0.5625
2023-04-04T01:55:34.531Z,-0.75
2023-04-04T02:00:35.569Z,-0.6875
2023-04-04T02:05:36.552Z,-0.75
2023-04-04T02:10:37.393Z,-0.6875
2023-04-04T02:15:38.444Z,-0.625
2023-04-04T02:20:39.528Z,-0.375
2023-04-04T02:25:40.212Z,-0.625
2023-04-04T02:30:41.485Z,-0.5625
2023-04-04T02:35:42.284Z,-0.625
2023-04-04T02:40:43.263Z,-0.75
2023-04-04T02:45:44.237Z,-0.6875
2023-04-04T02:50:45.029Z,-0.6875
2023-04-04T02:55:45.862Z,-0.75
2023-04-04T03:00:46.818Z,-0.8125
2023-04-04T03:05:47.765Z,-0.9375
2023-04-04T03:10:48.793Z,-1.0625
2023-04-04T03:15:49.827Z,-0.875
2023-04-04T03:20:50.768Z,-0.9375
2023-04-04T03:25:51.540Z,-0.875
2023-04-04T03:30:52.716Z,-0.9375
2023-04-04T03:35:53.571Z,-1
2023-04-04T03:40:54.972Z,-1.125
2023-04-04T03:45:56.839Z,-1.0625
2023-04-04T03:50:56.949Z,-1.25
2023-04-04T03:55:58.095Z,-1.3125
2023-04-04T04:00:59.114Z,-1.3125
2023-04-04T04:06:00.047Z,-1.3125
2023-04-04T04:11:01.041Z,-1.3125
2023-04-04T04:16:02.037Z,-1.3125
2023-04-04T04:21:04.189Z,-1.375
2023-04-04T04:26:05.011Z,-1.3125
2023-04-04T04:31:05.920Z,-1.5
2023-04-04T04:36:06.958Z,-1.3125
2023-04-04T04:41:07.849Z,-1.3125
2023-04-04T04:46:09.385Z,-1.375
2023-04-04T04:51:09.764Z,-1.3125
2023-04-04T04:56:10.779Z,-1.25
2023-04-04T05:01:11.906Z,-1.3125
2023-04-04T05:06:12.878Z,-1.25
2023-04-04T05:11:13.553Z,-1.25
2023-04-04T05:16:14.573Z,-1.25
2023-04-04T05:21:15.390Z,-1.25
2023-04-04T05:26:16.719Z,-1.25
2023-04-04T05:31:17.703Z,-1.125
2023-04-04T05:36:18.535Z,-1.1875
2023-04-04T05:41:19.418Z,-1.125
2023-04-04T05:46:20.304Z,-1
2023-04-04T05:51:21.269Z,-0.9375
2023-04-04T05:56:22.354Z,-0.75
2023-04-04T06:01:23.193Z,-0.5625
2023-04-04T06:06:24.272Z,0.625
2023-04-04T06:11:25.352Z,0
2023-04-04T06:16:26.225Z,-0.125
2023-04-04T06:21:27.242Z,-0.25
2023-04-04T06:26:28.228Z,-0.1875
2023-04-04T06:31:29.137Z,-0.125
2023-04-04T06:36:30.137Z,-0.0625
2023-04-04T06:41:31.104Z,0
2023-04-04T06:46:31.960Z,0.25
2023-04-04T06:51:32.896Z,0.4375
2023-04-04T06:56:33.830Z,0.5
2023-04-04T07:01:34.668Z,0.75
2023-04-04T07:06:35.417Z,1.0625
2023-04-04T07:11:36.450Z,3.3125
2023-04-04T07:16:37.324Z,5.125
2023-04-04T07:21:38.304Z,6.3125
2023-04-04T07:26:39.058Z,7.625
2023-04-04T07:31:40.089Z,7.625
2023-04-04T07:36:41.108Z,8.625
2023-04-04T07:41:41.969Z,8.5
2023-04-04T07:46:43.063Z,8.25
2023-04-04T07:51:44.105Z,9.5
2023-04-04T07:56:45.136Z,11
2023-04-04T08:01:46.247Z,10.5625
2023-04-04T08:06:46.751Z,9.8125
2023-04-04T08:11:47.697Z,10.5
2023-04-04T08:16:48.743Z,10.0625
2023-04-04T08:21:50.134Z,9.75
2023-04-04T08:26:58.152Z,10.6875
2023-04-04T08:31:51.714Z,9.5625
2023-04-04T08:36:52.610Z,9.3125
2023-04-04T08:41:53.912Z,8.875
2023-04-04T08:46:55.939Z,8.4375
2023-04-04T08:51:56.272Z,7.125
2023-04-04T08:56:57.995Z,6.375
2023-04-04T09:02:01.186Z,6.5
2023-04-04T09:07:00.733Z,6.125
2023-04-04T09:12:02.142Z,5.0625
2023-04-04T09:17:03.351Z,5.0625
2023-04-04T09:22:04.518Z,4.75
2023-04-04T09:27:05.869Z,4.625
2023-04-04T09:32:06.759Z,5
2023-04-04T09:37:07.625Z,4.8125
2023-04-04T09:42:08.509Z,5.75
2023-04-04T09:47:11.918Z,6.375
2023-04-04T09:52:10.173Z,6.8125
2023-04-04T09:57:11.219Z,6.8125
2023-04-04T10:02:12.245Z,6.75
2023-04-04T10:07:13.234Z,6.4375
2023-04-04T10:12:14.497Z,5.9375
2023-04-04T10:17:15.570Z,6.625
2023-04-04T10:22:16.495Z,6.6875
2023-04-04T10:27:17.422Z,6.875
2023-04-04T10:32:18.491Z,6.3125
2023-04-04T10:37:19.242Z,6.0625
2023-04-04T10:42:20.349Z,6.0625
2023-04-04T10:47:21.548Z,6.3125
2023-04-04T10:52:22.236Z,6.6875
2023-04-04T10:57:22.958Z,7
2023-04-04T11:02:23.664Z,7.1875
2023-04-04T11:07:24.688Z,7.1875
2023-04-04T11:12:26.033Z,7
2023-04-04T11:17:27.166Z,6.625
2023-04-04T11:22:28.403Z,6.625
2023-04-04T11:27:29.847Z,6.625
2023-04-04T11:32:31.647Z,6.75
2023-04-04T11:37:32.171Z,7.1875
2023-04-04T11:42:33.148Z,7.125
2023-04-04T11:47:34.767Z,7.4375
2023-04-04T11:52:36.056Z,7.625
2023-04-04T11:57:36.929Z,7.5
2023-04-04T12:02:38.192Z,7.5625
2023-04-04T12:07:38.713Z,8.1875
2023-04-04T12:12:39.905Z,8.25
2023-04-04T12:17:41.109Z,7.75
2023-04-04T12:22:41.911Z,7.625
2023-04-04T12:27:42.835Z,7.875
2023-04-04T12:32:43.796Z,8.0625
2023-04-04T12:37:44.575Z,8.3125
2023-04-04T12:42:45.650Z,8.5
2023-04-04T12:47:46.614Z,8.1875
2023-04-04T12:52:47.411Z,8.5625
2023-04-04T12:57:48.840Z,8.4375
2023-04-04T13:02:49.921Z,7.875
2023-04-04T13:07:50.977Z,8
2023-04-04T13:12:52.171Z,7.75
2023-04-04T13:17:53.470Z,7.5625
2023-04-04T13:22:54.436Z,7.6875
2023-04-04T13:27:55.405Z,7.5
2023-04-04T13:32:56.617Z,7.6875
2023-04-04T13:37:57.646Z,7.9375
2023-04-04T13:42:58.666Z,8.25
2023-04-04T13:47:59.858Z,8.375
2023-04-04T13:53:00.497Z,8.125
2023-04-04T13:58:01.586Z,8.1875
2023-04-04T14:03:03.091Z,8.1875
2023-04-04T14:08:04.366Z,8.3125
2023-04-04T14:13:05.319Z,8.375
2023-04-04T14:18:06.479Z,8.3125
2023-04-04T14:23:07.575Z,8.5
2023-04-04T14:28:08.619Z,8.375
2023-04-04T14:33:09.759Z,8.5
2023-04-04T14:38:10.782Z,8.1875
2023-04-04T14:43:11.729Z,7.5625
2023-04-04T14:48:13.419Z,7.4375
2023-04-04T14:53:14.019Z,7.5
2023-04-04T14:58:14.977Z,7.375
2023-04-04T15:03:16.061Z,7.4375
2023-04-04T15:08:17.027Z,7.4375
2023-04-04T15:13:18.068Z,7.25
2023-04-04T15:18:18.975Z,7.25
2023-04-04T15:23:19.934Z,7.4375
2023-04-04T15:28:20.915Z,7.625
2023-04-04T15:33:21.918Z,7.75
2023-04-04T15:38:22.828Z,8
2023-04-04T15:43:23.848Z,8
2023-04-04T15:48:24.790Z,7.9375
2023-04-04T15:53:25.651Z,7.9375
2023-04-04T15:58:26.591Z,7.75
2023-04-04T16:03:27.677Z,7.5625
2023-04-04T16:08:28.600Z,7.3125
2023-04-04T16:13:29.421Z,7.3125
2023-04-04T16:18:30.424Z,7.125
2023-04-04T16:23:31.317Z,7.0625
2023-04-04T16:28:32.315Z,6.8125
2023-04-04T16:33:33.433Z,6.5625
2023-04-04T16:38:34.518Z,6.4375
2023-04-04T16:43:35.577Z,6.3125
2023-04-04T16:48:36.961Z,6.3125
2023-04-04T16:53:37.475Z,6.3125
2023-04-04T16:58:38.476Z,6.375
2023-04-04T17:03:39.434Z,6.25
2023-04-04T17:08:40.425Z,6.125
2023-04-04T17:13:41.243Z,6.125
2023-04-04T17:18:42.241Z,6
2023-04-04T17:23:43.366Z,5.875
2023-04-04T17:28:44.518Z,5.8125
2023-04-04T17:33:45.625Z,5.75
2023-04-04T17:38:46.462Z,5.6875
2023-04-04T17:43:47.395Z,5.625
2023-04-04T17:48:48.594Z,5.5625
2023-04-04T17:53:49.518Z,5.375
2023-04-04T17:58:51.886Z,5.125
2023-04-04T18:03:51.416Z,5.0625
2023-04-04T18:08:53.452Z,4.875
2023-04-04T18:13:54.645Z,4.875
2023-04-04T18:18:55.539Z,4.8125
2023-04-04T18:23:56.460Z,4.8125
2023-04-04T18:28:57.494Z,4.8125
2023-04-04T18:33:58.484Z,4.6875
2023-04-04T18:38:59.403Z,4.625
2023-04-04T18:44:00.326Z,4.75
2023-04-04T18:49:01.338Z,4.75
2023-04-04T18:54:02.185Z,4.6875
2023-04-04T18:59:03.175Z,4.6875
2023-04-04T19:04:04.355Z,4.5625
2023-04-04T19:09:05.266Z,4.4375
2023-04-04T19:14:07.974Z,4.25
2023-04-04T19:19:07.095Z,4.1875
2023-04-04T19:24:08.048Z,4.125
2023-04-04T19:29:08.781Z,4
2023-04-04T19:34:09.866Z,3.875
2023-04-04T19:39:11.008Z,3.75
2023-04-04T19:44:11.779Z,3.6875
2023-04-04T19:49:13.772Z,3.3125
2023-04-04T19:54:13.863Z,3.375
2023-04-04T19:59:15.037Z,3.3125
2023-04-04T20:04:15.913Z,3.1875
2023-04-04T20:09:16.851Z,3.0625
2023-04-04T20:14:17.906Z,3.125
2023-04-04T20:19:18.910Z,3.125
2023-04-04T20:24:19.844Z,3.1875
2023-04-04T20:29:20.852Z,3.375
2023-04-04T20:34:21.904Z,3.375
2023-04-04T20:39:22.905Z,3.3125
2023-04-04T20:44:23.683Z,3.1875
2023-04-04T20:49:25.444Z,3.0625
2023-04-04T20:54:25.379Z,3.0625
2023-04-04T20:59:26.431Z,3.0625
2023-04-04T21:04:27.411Z,2.875
2023-04-04T21:09:28.519Z,2.8125
2023-04-04T21:14:29.535Z,2.8125
2023-04-04T21:19:30.438Z,2.875
2023-04-04T21:24:31.790Z,2.8125
2023-04-04T21:29:32.605Z,2.75
2023-04-04T21:34:33.417Z,2.6875
2023-04-04T21:39:34.335Z,2.625
2023-04-04T21:44:35.391Z,2.5625
2023-04-04T21:49:36.373Z,2.5
2023-04-04T21:54:37.096Z,2.4375
2023-04-04T21:59:38.282Z,2.4375
2023-04-04T22:04:39.281Z,2.375
2023-04-04T22:09:40.176Z,2.3125
2023-04-04T22:14:41.039Z,2.125
2023-04-04T22:19:42.123Z,2.125
2023-04-04T22:24:42.840Z,2.125
2023-04-04T22:29:43.841Z,2.0625
2023-04-04T22:34:44.931Z,2.0625
2023-04-04T22:39:45.797Z,1.9375
2023-04-04T22:44:46.969Z,1.6875
2023-04-04T22:49:48.190Z,1.5625
2023-04-04T22:54:49.180Z,1.625
2023-04-04T22:59:50.127Z,1.5
2023-04-04T23:04:51.110Z,1.5625
2023-04-04T23:09:51.890Z,1.5
2023-04-04T23:14:52.755Z,1.375
2023-04-04T23:19:53.720Z,1.3125
2023-04-04T23:24:54.634Z,1.3125
2023-04-04T23:29:55.550Z,1.25
2023-04-04T23:34:56.530Z,1.25
2023-04-04T23:39:57.664Z,1.125
2023-04-04T23:44:58.515Z,0.9375
2023-04-04T23:49:59.806Z,0.875
2023-04-04T23:55:00.184Z,0.9375
